sensor_id;sensor_type;location;lat;lon;timestamp;P1;durP1;ratioP1;P2;durP2;ratioP2
33593;SDS011;19920;52.242;20.940;2023-04-01T00:02:17;18.63;;;12.80;;
33593;SDS011;19920;52.242;20.940;2023-04-01T00:04:43;17.40;;;11.68;;
33593;SDS011;19920;52.242;20.940;2023-04-01T00:07:09;16.88;;;12.43;;
33593;SDS011;19920;52.242;20.940;2023-04-01T00:09:35;18.10;;;12.63;;
33593;SDS011;19920;52.242;20.940;2023-04-01T00:12:02;21.95;;;13.70;;
33593;SDS011;19920;52.242;20.940;2023-04-01T00:14:28;20.60;;;12.70;;
33593;SDS011;19920;52.242;20.940;2023-04-01T00:16:54;21.83;;;13.57;;
33593;SDS011;19920;52.242;20.940;2023-04-01T00:19:20;20.55;;;14.38;;
33593;SDS011;19920;52.242;20.940;2023-04-01T00:21:46;22.15;;;14.02;;
33593;SDS011;19920;52.242;20.940;2023-04-01T00:24:13;17.20;;;13.60;;
33593;SDS011;19920;52.242;20.940;2023-04-01T00:26:38;23.58;;;15.38;;
33593;SDS011;19920;52.242;20.940;2023-04-01T00:29:05;20.92;;;14.95;;
33593;SDS011;19920;52.242;20.940;2023-04-01T00:31:31;23.45;;;15.30;;
33593;SDS011;19920;52.242;20.940;2023-04-01T00:33:57;23.38;;;16.20;;
33593;SDS011;19920;52.242;20.940;2023-04-01T00:36:23;21.90;;;15.13;;
33593;SDS011;19920;52.242;20.940;2023-04-01T00:38:50;25.92;;;17.13;;
33593;SDS011;19920;52.242;20.940;2023-04-01T00:41:16;21.13;;;15.32;;
33593;SDS011;19920;52.242;20.940;2023-04-01T00:43:44;21.35;;;14.50;;
33593;SDS011;19920;52.242;20.940;2023-04-01T00:46:12;20.27;;;14.05;;
33593;SDS011;19920;52.242;20.940;2023-04-01T00:48:39;23.33;;;15.38;;
33593;SDS011;19920;52.242;20.940;2023-04-01T00:51:14;22.00;;;14.55;;
33593;SDS011;19920;52.242;20.940;2023-04-01T00:53:44;20.65;;;14.57;;
33593;SDS011;19920;52.242;20.940;2023-04-01T00:56:14;20.73;;;14.55;;
33593;SDS011;19920;52.242;20.940;2023-04-01T00:58:44;21.38;;;13.98;;
33593;SDS011;19920;52.242;20.940;2023-04-01T01:01:14;21.92;;;14.07;;
33593;SDS011;19920;52.242;20.940;2023-04-01T01:03:40;19.38;;;14.00;;
33593;SDS011;19920;52.242;20.940;2023-04-01T01:11:44;22.92;;;15.02;;
33593;SDS011;19920;52.242;20.940;2023-04-01T01:16:45;20.67;;;14.70;;
33593;SDS011;19920;52.242;20.940;2023-04-01T01:28:08;20.92;;;15.57;;
33593;SDS011;19920;52.242;20.940;2023-04-01T01:36:32;24.25;;;16.20;;
33593;SDS011;19920;52.242;20.940;2023-04-01T01:39:05;22.05;;;15.73;;
33593;SDS011;19920;52.242;20.940;2023-04-01T01:41:32;25.30;;;16.45;;
33593;SDS011;19920;52.242;20.940;2023-04-01T01:44:01;20.95;;;15.02;;
33593;SDS011;19920;52.242;20.940;2023-04-01T01:46:29;21.98;;;16.17;;
33593;SDS011;19920;52.242;20.940;2023-04-01T01:48:56;22.88;;;16.50;;
33593;SDS011;19920;52.242;20.940;2023-04-01T01:51:25;22.60;;;16.10;;
33593;SDS011;19920;52.242;20.940;2023-04-01T01:53:52;22.00;;;16.60;;
33593;SDS011;19920;52.242;20.940;2023-04-01T01:56:18;23.42;;;15.95;;
33593;SDS011;19920;52.242;20.940;2023-04-01T01:58:49;24.67;;;17.25;;
33593;SDS011;19920;52.242;20.940;2023-04-01T02:01:20;26.85;;;17.83;;
33593;SDS011;19920;52.242;20.940;2023-04-01T02:03:52;25.98;;;17.98;;
33593;SDS011;19920;52.242;20.940;2023-04-01T02:06:18;26.73;;;18.02;;
33593;SDS011;19920;52.242;20.940;2023-04-01T02:08:49;23.90;;;16.63;;
33593;SDS011;19920;52.242;20.940;2023-04-01T02:11:22;25.25;;;17.77;;
33593;SDS011;19920;52.242;20.940;2023-04-01T02:13:56;25.27;;;18.27;;
33593;SDS011;19920;52.242;20.940;2023-04-01T02:16:29;26.27;;;17.92;;
33593;SDS011;19920;52.242;20.940;2023-04-01T02:19:10;27.20;;;18.92;;
33593;SDS011;19920;52.242;20.940;2023-04-01T02:21:38;26.10;;;19.63;;
33593;SDS011;19920;52.242;20.940;2023-04-01T02:24:08;26.35;;;18.83;;
33593;SDS011;19920;52.242;20.940;2023-04-01T02:26:37;27.50;;;19.77;;
33593;SDS011;19920;52.242;20.940;2023-04-01T02:29:06;28.70;;;19.65;;
33593;SDS011;19920;52.242;20.940;2023-04-01T02:31:34;28.83;;;20.02;;
33593;SDS011;19920;52.242;20.940;2023-04-01T02:34:00;28.00;;;19.63;;
33593;SDS011;19920;52.242;20.940;2023-04-01T02:36:28;29.02;;;19.55;;
33593;SDS011;19920;52.242;20.940;2023-04-01T02:38:54;28.80;;;20.33;;
33593;SDS011;19920;52.242;20.940;2023-04-01T02:43:49;28.77;;;19.08;;
33593;SDS011;19920;52.242;20.940;2023-04-01T02:46:15;31.77;;;20.30;;
33593;SDS011;19920;52.242;20.940;2023-04-01T02:48:40;27.30;;;20.20;;
33593;SDS011;19920;52.242;20.940;2023-04-01T02:51:06;25.85;;;19.30;;
33593;SDS011;19920;52.242;20.940;2023-04-01T02:53:33;26.35;;;19.00;;
33593;SDS011;19920;52.242;20.940;2023-04-01T02:55:58;29.42;;;19.65;;
33593;SDS011;19920;52.242;20.940;2023-04-01T02:58:24;28.02;;;19.75;;
33593;SDS011;19920;52.242;20.940;2023-04-01T03:00:50;30.55;;;19.88;;
33593;SDS011;19920;52.242;20.940;2023-04-01T03:03:16;27.65;;;19.13;;
33593;SDS011;19920;52.242;20.940;2023-04-01T03:05:41;29.38;;;19.77;;
33593;SDS011;19920;52.242;20.940;2023-04-01T03:08:07;30.88;;;20.15;;
33593;SDS011;19920;52.242;20.940;2023-04-01T03:10:33;28.70;;;21.13;;
33593;SDS011;19920;52.242;20.940;2023-04-01T03:12:58;29.38;;;20.55;;
33593;SDS011;19920;52.242;20.940;2023-04-01T03:15:24;33.00;;;21.15;;
33593;SDS011;19920;52.242;20.940;2023-04-01T03:17:49;31.15;;;21.05;;
33593;SDS011;19920;52.242;20.940;2023-04-01T03:20:16;31.83;;;21.40;;
33593;SDS011;19920;52.242;20.940;2023-04-01T03:22:42;29.88;;;20.15;;
33593;SDS011;19920;52.242;20.940;2023-04-01T03:25:07;27.25;;;19.90;;
33593;SDS011;19920;52.242;20.940;2023-04-01T03:27:34;29.80;;;19.90;;
33593;SDS011;19920;52.242;20.940;2023-04-01T03:30:01;25.52;;;19.02;;
33593;SDS011;19920;52.242;20.940;2023-04-01T03:34:56;27.45;;;17.38;;
33593;SDS011;19920;52.242;20.940;2023-04-01T03:37:22;24.48;;;17.33;;
33593;SDS011;19920;52.242;20.940;2023-04-01T03:39:48;24.70;;;18.13;;
33593;SDS011;19920;52.242;20.940;2023-04-01T03:42:14;23.77;;;17.67;;
33593;SDS011;19920;52.242;20.940;2023-04-01T03:44:40;25.20;;;17.75;;
33593;SDS011;19920;52.242;20.940;2023-04-01T03:47:05;25.13;;;17.92;;
33593;SDS011;19920;52.242;20.940;2023-04-01T03:49:32;26.27;;;18.23;;
33593;SDS011;19920;52.242;20.940;2023-04-01T03:51:58;26.98;;;17.40;;
33593;SDS011;19920;52.242;20.940;2023-04-01T03:54:23;24.55;;;16.88;;
33593;SDS011;19920;52.242;20.940;2023-04-01T03:56:49;21.85;;;16.95;;
33593;SDS011;19920;52.242;20.940;2023-04-01T03:59:15;22.60;;;16.58;;
33593;SDS011;19920;52.242;20.940;2023-04-01T04:01:41;21.42;;;16.63;;
33593;SDS011;19920;52.242;20.940;2023-04-01T04:04:07;21.85;;;15.93;;
33593;SDS011;19920;52.242;20.940;2023-04-01T04:06:35;25.33;;;17.10;;
33593;SDS011;19920;52.242;20.940;2023-04-01T04:09:01;25.35;;;17.77;;
33593;SDS011;19920;52.242;20.940;2023-04-01T04:11:27;24.63;;;16.90;;
33593;SDS011;19920;52.242;20.940;2023-04-01T04:13:52;25.00;;;17.13;;
33593;SDS011;19920;52.242;20.940;2023-04-01T04:16:18;26.08;;;16.38;;
33593;SDS011;19920;52.242;20.940;2023-04-01T04:18:43;22.80;;;16.38;;
33593;SDS011;19920;52.242;20.940;2023-04-01T04:21:13;23.95;;;16.15;;
33593;SDS011;19920;52.242;20.940;2023-04-01T04:23:40;22.90;;;16.23;;
33593;SDS011;19920;52.242;20.940;2023-04-01T04:26:06;21.35;;;16.05;;
33593;SDS011;19920;52.242;20.940;2023-04-01T04:28:34;22.42;;;16.15;;
33593;SDS011;19920;52.242;20.940;2023-04-01T04:31:00;20.02;;;15.02;;
33593;SDS011;19920;52.242;20.940;2023-04-01T04:33:26;22.50;;;15.48;;
33593;SDS011;19920;52.242;20.940;2023-04-01T04:35:54;21.25;;;14.63;;
33593;SDS011;19920;52.242;20.940;2023-04-01T04:38:21;20.70;;;14.90;;
33593;SDS011;19920;52.242;20.940;2023-04-01T04:40:47;21.35;;;14.63;;
33593;SDS011;19920;52.242;20.940;2023-04-01T04:43:13;19.45;;;13.98;;
33593;SDS011;19920;52.242;20.940;2023-04-01T04:45:40;16.45;;;12.95;;
33593;SDS011;19920;52.242;20.940;2023-04-01T04:48:10;16.50;;;12.45;;
33593;SDS011;19920;52.242;20.940;2023-04-01T04:50:41;18.95;;;12.98;;
33593;SDS011;19920;52.242;20.940;2023-04-01T04:53:13;24.45;;;13.45;;
33593;SDS011;19920;52.242;20.940;2023-04-01T04:55:44;19.30;;;13.18;;
33593;SDS011;19920;52.242;20.940;2023-04-01T04:58:13;19.08;;;12.73;;
33593;SDS011;19920;52.242;20.940;2023-04-01T05:00:39;16.17;;;11.65;;
33593;SDS011;19920;52.242;20.940;2023-04-01T05:03:05;17.00;;;12.23;;
33593;SDS011;19920;52.242;20.940;2023-04-01T05:05:31;19.00;;;11.55;;
33593;SDS011;19920;52.242;20.940;2023-04-01T05:07:56;18.65;;;11.30;;
33593;SDS011;19920;52.242;20.940;2023-04-01T05:10:22;15.50;;;11.07;;
33593;SDS011;19920;52.242;20.940;2023-04-01T05:12:48;14.32;;;10.13;;
33593;SDS011;19920;52.242;20.940;2023-04-01T05:15:13;13.07;;;9.70;;
33593;SDS011;19920;52.242;20.940;2023-04-01T05:17:40;16.38;;;10.85;;
33593;SDS011;19920;52.242;20.940;2023-04-01T05:20:05;15.75;;;10.57;;
33593;SDS011;19920;52.242;20.940;2023-04-01T05:22:31;13.85;;;9.65;;
33593;SDS011;19920;52.242;20.940;2023-04-01T05:24:57;14.48;;;10.25;;
33593;SDS011;19920;52.242;20.940;2023-04-01T05:27:23;12.43;;;9.60;;
33593;SDS011;19920;52.242;20.940;2023-04-01T05:29:48;13.20;;;9.50;;
33593;SDS011;19920;52.242;20.940;2023-04-01T05:32:14;12.98;;;9.43;;
33593;SDS011;19920;52.242;20.940;2023-04-01T05:34:40;12.48;;;9.68;;
33593;SDS011;19920;52.242;20.940;2023-04-01T05:37:06;13.23;;;8.75;;
33593;SDS011;19920;52.242;20.940;2023-04-01T05:39:35;13.02;;;8.90;;
33593;SDS011;19920;52.242;20.940;2023-04-01T05:42:02;12.70;;;8.70;;
33593;SDS011;19920;52.242;20.940;2023-04-01T05:44:30;12.55;;;9.20;;
33593;SDS011;19920;52.242;20.940;2023-04-01T05:46:55;12.00;;;8.85;;
33593;SDS011;19920;52.242;20.940;2023-04-01T05:49:21;10.98;;;8.32;;
33593;SDS011;19920;52.242;20.940;2023-04-01T05:51:47;12.00;;;8.95;;
33593;SDS011;19920;52.242;20.940;2023-04-01T05:54:12;11.20;;;8.48;;
33593;SDS011;19920;52.242;20.940;2023-04-01T05:56:38;9.85;;;8.30;;
33593;SDS011;19920;52.242;20.940;2023-04-01T05:59:03;10.48;;;8.50;;
33593;SDS011;19920;52.242;20.940;2023-04-01T06:01:29;10.38;;;7.78;;
33593;SDS011;19920;52.242;20.940;2023-04-01T06:03:55;11.65;;;7.72;;
33593;SDS011;19920;52.242;20.940;2023-04-01T06:06:24;11.20;;;8.07;;
33593;SDS011;19920;52.242;20.940;2023-04-01T06:08:56;9.32;;;7.70;;
33593;SDS011;19920;52.242;20.940;2023-04-01T06:27:57;11.40;;;7.80;;
33593;SDS011;19920;52.242;20.940;2023-04-01T06:30:40;12.07;;;8.80;;
33593;SDS011;19920;52.242;20.940;2023-04-01T06:38:51;11.88;;;8.38;;
33593;SDS011;19920;52.242;20.940;2023-04-01T06:50:19;9.00;;;7.50;;
33593;SDS011;19920;52.242;20.940;2023-04-01T06:55:44;9.43;;;7.60;;
33593;SDS011;19920;52.242;20.940;2023-04-01T06:58:20;7.88;;;5.68;;
33593;SDS011;19920;52.242;20.940;2023-04-01T07:00:59;5.63;;;4.22;;
33593;SDS011;19920;52.242;20.940;2023-04-01T07:06:10;7.32;;;4.82;;
33593;SDS011;19920;52.242;20.940;2023-04-01T07:08:58;5.45;;;3.58;;
33593;SDS011;19920;52.242;20.940;2023-04-01T07:11:29;6.00;;;4.20;;
33593;SDS011;19920;52.242;20.940;2023-04-01T07:14:01;6.25;;;4.53;;
33593;SDS011;19920;52.242;20.940;2023-04-01T07:16:41;7.95;;;5.90;;
33593;SDS011;19920;52.242;20.940;2023-04-01T07:19:25;11.52;;;8.93;;
33593;SDS011;19920;52.242;20.940;2023-04-01T07:25:15;17.98;;;12.70;;
33593;SDS011;19920;52.242;20.940;2023-04-01T07:27:43;20.40;;;15.90;;
33593;SDS011;19920;52.242;20.940;2023-04-01T07:30:17;20.85;;;15.55;;
33593;SDS011;19920;52.242;20.940;2023-04-01T07:32:54;20.65;;;16.15;;
33593;SDS011;19920;52.242;20.940;2023-04-01T07:35:27;21.73;;;16.40;;
33593;SDS011;19920;52.242;20.940;2023-04-01T07:51:13;21.90;;;16.80;;
33593;SDS011;19920;52.242;20.940;2023-04-01T07:56:55;22.73;;;16.17;;
33593;SDS011;19920;52.242;20.940;2023-04-01T08:05:32;20.08;;;15.18;;
33593;SDS011;19920;52.242;20.940;2023-04-01T08:08:19;19.33;;;15.45;;
33593;SDS011;19920;52.242;20.940;2023-04-01T08:10:52;20.35;;;16.23;;
33593;SDS011;19920;52.242;20.940;2023-04-01T08:13:37;20.45;;;16.48;;
33593;SDS011;19920;52.242;20.940;2023-04-01T08:16:17;20.10;;;15.82;;
33593;SDS011;19920;52.242;20.940;2023-04-01T08:18:54;18.33;;;15.55;;
33593;SDS011;19920;52.242;20.940;2023-04-01T08:21:35;19.88;;;16.15;;
33593;SDS011;19920;52.242;20.940;2023-04-01T08:24:12;18.58;;;15.20;;
33593;SDS011;19920;52.242;20.940;2023-04-01T08:26:48;17.88;;;15.10;;
33593;SDS011;19920;52.242;20.940;2023-04-01T08:29:19;17.20;;;14.07;;
33593;SDS011;19920;52.242;20.940;2023-04-01T08:32:05;13.68;;;11.50;;
33593;SDS011;19920;52.242;20.940;2023-04-01T08:34:40;12.90;;;9.15;;
33593;SDS011;19920;52.242;20.940;2023-04-01T08:42:28;11.25;;;7.82;;
33593;SDS011;19920;52.242;20.940;2023-04-01T08:56:40;10.50;;;6.72;;
33593;SDS011;19920;52.242;20.940;2023-04-01T09:11:22;10.52;;;9.07;;
33593;SDS011;19920;52.242;20.940;2023-04-01T09:22:50;11.18;;;7.78;;
33593;SDS011;19920;52.242;20.940;2023-04-01T09:28:19;8.02;;;6.20;;
33593;SDS011;19920;52.242;20.940;2023-04-01T09:31:19;5.43;;;4.13;;
33593;SDS011;19920;52.242;20.940;2023-04-01T09:34:14;5.15;;;4.22;;
33593;SDS011;19920;52.242;20.940;2023-04-01T09:42:47;4.22;;;3.58;;
33593;SDS011;19920;52.242;20.940;2023-04-01T09:45:42;7.43;;;4.22;;
33593;SDS011;19920;52.242;20.940;2023-04-01T10:08:08;6.32;;;4.07;;
33593;SDS011;19920;52.242;20.940;2023-04-01T10:10:55;7.95;;;4.75;;
33593;SDS011;19920;52.242;20.940;2023-04-01T10:19:33;6.05;;;4.10;;
33593;SDS011;19920;52.242;20.940;2023-04-01T10:22:05;5.40;;;4.15;;
33593;SDS011;19920;52.242;20.940;2023-04-01T10:38:34;5.63;;;4.68;;
33593;SDS011;19920;52.242;20.940;2023-04-01T10:49:48;6.20;;;5.05;;
33593;SDS011;19920;52.242;20.940;2023-04-01T11:26:17;5.15;;;4.65;;
33593;SDS011;19920;52.242;20.940;2023-04-01T11:36:47;6.03;;;4.43;;
33593;SDS011;19920;52.242;20.940;2023-04-01T11:40:17;6.95;;;4.85;;
33593;SDS011;19920;52.242;20.940;2023-04-01T11:42:35;6.78;;;5.13;;
33593;SDS011;19920;52.242;20.940;2023-04-01T11:45:44;6.90;;;5.78;;
33593;SDS011;19920;52.242;20.940;2023-04-01T11:48:32;6.55;;;5.60;;
33593;SDS011;19920;52.242;20.940;2023-04-01T12:11:22;2.35;;;1.67;;
33593;SDS011;19920;52.242;20.940;2023-04-01T12:19:53;3.72;;;2.70;;
33593;SDS011;19920;52.242;20.940;2023-04-01T12:22:43;2.90;;;2.60;;
33593;SDS011;19920;52.242;20.940;2023-04-01T12:28:14;4.95;;;4.20;;
33593;SDS011;19920;52.242;20.940;2023-04-01T13:31:33;2.85;;;2.45;;
33593;SDS011;19920;52.242;20.940;2023-04-01T13:37:19;2.58;;;2.38;;
33593;SDS011;19920;52.242;20.940;2023-04-01T13:40:16;4.03;;;2.80;;
33593;SDS011;19920;52.242;20.940;2023-04-01T13:42:45;4.32;;;3.53;;
33593;SDS011;19920;52.242;20.940;2023-04-01T14:01:59;3.13;;;2.30;;
33593;SDS011;19920;52.242;20.940;2023-04-01T14:04:40;3.40;;;2.63;;
33593;SDS011;19920;52.242;20.940;2023-04-01T14:07:26;5.57;;;3.90;;
33593;SDS011;19920;52.242;20.940;2023-04-01T14:10:15;5.50;;;4.18;;
33593;SDS011;19920;52.242;20.940;2023-04-01T14:49:04;2.88;;;2.40;;
33593;SDS011;19920;52.242;20.940;2023-04-01T14:51:50;3.60;;;2.63;;
33593;SDS011;19920;52.242;20.940;2023-04-01T14:54:19;4.00;;;2.67;;
33593;SDS011;19920;52.242;20.940;2023-04-01T14:57:11;4.40;;;3.13;;
33593;SDS011;19920;52.242;20.940;2023-04-01T14:59:49;4.90;;;2.85;;
33593;SDS011;19920;52.242;20.940;2023-04-01T15:02:26;4.50;;;3.10;;
33593;SDS011;19920;52.242;20.940;2023-04-01T15:05:13;3.90;;;3.00;;
33593;SDS011;19920;52.242;20.940;2023-04-01T15:13:46;4.20;;;2.97;;
33593;SDS011;19920;52.242;20.940;2023-04-01T15:24:24;5.22;;;3.33;;
33593;SDS011;19920;52.242;20.940;2023-04-01T15:33:16;6.22;;;3.92;;
33593;SDS011;19920;52.242;20.940;2023-04-01T15:36:06;4.50;;;3.53;;
33593;SDS011;19920;52.242;20.940;2023-04-01T15:38:51;4.03;;;3.20;;
33593;SDS011;19920;52.242;20.940;2023-04-01T15:47:31;3.05;;;2.72;;
33593;SDS011;19920;52.242;20.940;2023-04-01T16:06:36;2.45;;;2.00;;
33593;SDS011;19920;52.242;20.940;2023-04-01T16:12:48;2.35;;;1.95;;
33593;SDS011;19920;52.242;20.940;2023-04-01T16:15:44;4.85;;;2.47;;
33593;SDS011;19920;52.242;20.940;2023-04-01T16:26:48;3.20;;;2.28;;
33593;SDS011;19920;52.242;20.940;2023-04-01T16:29:33;5.07;;;2.38;;
33593;SDS011;19920;52.242;20.940;2023-04-01T16:34:54;3.15;;;1.95;;
33593;SDS011;19920;52.242;20.940;2023-04-01T16:40:10;2.30;;;1.80;;
33593;SDS011;19920;52.242;20.940;2023-04-01T16:42:54;3.83;;;1.80;;
33593;SDS011;19920;52.242;20.940;2023-04-01T16:48:14;2.60;;;1.77;;
33593;SDS011;19920;52.242;20.940;2023-04-01T16:51:02;13.60;;;7.85;;
33593;SDS011;19920;52.242;20.940;2023-04-01T16:53:48;11.48;;;7.18;;
33593;SDS011;19920;52.242;20.940;2023-04-01T16:56:23;8.18;;;4.80;;
33593;SDS011;19920;52.242;20.940;2023-04-01T16:59:04;3.58;;;2.65;;
33593;SDS011;19920;52.242;20.940;2023-04-01T17:06:54;3.08;;;2.50;;
33593;SDS011;19920;52.242;20.940;2023-04-01T17:19:45;4.95;;;3.70;;
33593;SDS011;19920;52.242;20.940;2023-04-01T17:27:59;5.65;;;4.85;;
33593;SDS011;19920;52.242;20.940;2023-04-01T17:42:34;7.40;;;5.45;;
33593;SDS011;19920;52.242;20.940;2023-04-01T17:59:36;8.55;;;6.22;;
33593;SDS011;19920;52.242;20.940;2023-04-01T18:02:22;8.60;;;6.35;;
33593;SDS011;19920;52.242;20.940;2023-04-01T18:07:49;8.75;;;6.20;;
33593;SDS011;19920;52.242;20.940;2023-04-01T18:21:58;9.77;;;6.75;;
33593;SDS011;19920;52.242;20.940;2023-04-01T18:24:45;11.13;;;8.30;;
33593;SDS011;19920;52.242;20.940;2023-04-01T18:30:22;11.40;;;7.63;;
33593;SDS011;19920;52.242;20.940;2023-04-01T18:32:58;9.77;;;7.45;;
33593;SDS011;19920;52.242;20.940;2023-04-01T18:35:47;10.90;;;8.05;;
33593;SDS011;19920;52.242;20.940;2023-04-01T18:49:41;10.77;;;7.88;;
33593;SDS011;19920;52.242;20.940;2023-04-01T18:55:16;13.40;;;8.65;;
33593;SDS011;19920;52.242;20.940;2023-04-01T18:57:52;13.38;;;9.13;;
33593;SDS011;19920;52.242;20.940;2023-04-01T19:00:20;13.75;;;8.90;;
33593;SDS011;19920;52.242;20.940;2023-04-01T19:03:01;11.23;;;8.45;;
33593;SDS011;19920;52.242;20.940;2023-04-01T19:05:42;12.88;;;8.63;;
33593;SDS011;19920;52.242;20.940;2023-04-01T19:08:18;11.82;;;8.93;;
33593;SDS011;19920;52.242;20.940;2023-04-01T19:21:39;11.55;;;7.90;;
33593;SDS011;19920;52.242;20.940;2023-04-01T19:35:35;10.73;;;7.53;;
33593;SDS011;19920;52.242;20.940;2023-04-01T19:43:44;11.07;;;7.90;;
33593;SDS011;19920;52.242;20.940;2023-04-01T20:02:38;13.52;;;8.13;;
33593;SDS011;19920;52.242;20.940;2023-04-01T20:11:04;11.63;;;8.10;;
33593;SDS011;19920;52.242;20.940;2023-04-01T20:19:19;11.32;;;7.35;;
33593;SDS011;19920;52.242;20.940;2023-04-01T20:21:52;12.52;;;7.82;;
33593;SDS011;19920;52.242;20.940;2023-04-01T20:24:25;8.75;;;7.30;;
33593;SDS011;19920;52.242;20.940;2023-04-01T20:27:41;10.60;;;7.63;;
33593;SDS011;19920;52.242;20.940;2023-04-01T20:36:06;12.15;;;7.68;;
33593;SDS011;19920;52.242;20.940;2023-04-01T20:41:59;11.70;;;8.38;;
33593;SDS011;19920;52.242;20.940;2023-04-01T20:50:19;8.07;;;6.63;;
33593;SDS011;19920;52.242;20.940;2023-04-01T20:53:07;9.48;;;7.60;;
33593;SDS011;19920;52.242;20.940;2023-04-01T21:01:01;11.82;;;7.63;;
33593;SDS011;19920;52.242;20.940;2023-04-01T21:07:04;10.50;;;6.63;;
33593;SDS011;19920;52.242;20.940;2023-04-01T22:00:06;7.55;;;5.38;;
33593;SDS011;19920;52.242;20.940;2023-04-01T22:05:18;9.23;;;5.18;;
33593;SDS011;19920;52.242;20.940;2023-04-01T22:10:54;9.75;;;5.45;;
33593;SDS011;19920;52.242;20.940;2023-04-01T22:29:11;8.73;;;6.20;;
33593;SDS011;19920;52.242;20.940;2023-04-01T22:31:52;9.15;;;5.57;;
33593;SDS011;19920;52.242;20.940;2023-04-01T22:38:15;8.80;;;6.18;;
33593;SDS011;19920;52.242;20.940;2023-04-01T22:43:46;6.90;;;5.15;;
33593;SDS011;19920;52.242;20.940;2023-04-01T22:51:49;10.18;;;5.93;;
33593;SDS011;19920;52.242;20.940;2023-04-01T22:59:58;7.93;;;5.20;;
33593;SDS011;19920;52.242;20.940;2023-04-01T23:05:25;8.45;;;5.72;;
33593;SDS011;19920;52.242;20.940;2023-04-01T23:07:56;7.68;;;5.78;;
33593;SDS011;19920;52.242;20.940;2023-04-01T23:13:13;7.25;;;5.32;;
33593;SDS011;19920;52.242;20.940;2023-04-01T23:15:43;7.80;;;5.25;;
33593;SDS011;19920;52.242;20.940;2023-04-01T23:26:26;6.53;;;4.50;;
33593;SDS011;19920;52.242;20.940;2023-04-01T23:28:59;5.88;;;4.45;;
33593;SDS011;19920;52.242;20.940;2023-04-01T23:33:56;6.57;;;4.53;;
33593;SDS011;19920;52.242;20.940;2023-04-01T23:36:44;7.75;;;4.75;;
33593;SDS011;19920;52.242;20.940;2023-04-01T23:39:22;7.50;;;4.68;;
33593;SDS011;19920;52.242;20.940;2023-04-01T23:42:40;5.95;;;4.60;;
33593;SDS011;19920;52.242;20.940;2023-04-01T23:44:49;7.38;;;5.05;;
33593;SDS011;19920;52.242;20.940;2023-04-01T23:47:18;8.15;;;5.13;;
33593;SDS011;19920;52.242;20.940;2023-04-01T23:49:50;8.00;;;5.05;;
33593;SDS011;19920;52.242;20.940;2023-04-01T23:52:24;7.45;;;5.07;;
33593;SDS011;19920;52.242;20.940;2023-04-01T23:55:12;7.10;;;4.82;;
